createdAt,value
2018-10-03T00:00:15.349Z,7.63
2018-10-03T00:02:43.689Z,8.57
2018-10-03T00:05:12.104Z,8.80
2018-10-03T00:07:40.530Z,8.60
2018-10-03T00:10:08.788Z,9.53
2018-10-03T00:12:37.394Z,8.67
2018-10-03T00:15:05.716Z,8.47
2018-10-03T00:17:34.184Z,9.47
2018-10-03T00:20:02.559Z,7.93
2018-10-03T00:22:30.990Z,9.97
2018-10-03T00:24:59.450Z,10.57
2018-10-03T00:27:27.728Z,11.57
2018-10-03T00:29:55.959Z,13.20
2018-10-03T00:32:24.327Z,13.40
2018-10-03T00:34:52.598Z,10.83
2018-10-03T00:37:20.968Z,10.80
2018-10-03T00:39:49.435Z,10.70
2018-10-03T00:42:17.859Z,10.27
2018-10-03T00:44:46.208Z,9.40
2018-10-03T00:47:14.583Z,8.23
2018-10-03T00:49:42.876Z,9.67
2018-10-03T00:52:11.137Z,7.40
2018-10-03T00:54:39.528Z,8.67
2018-10-03T00:57:07.777Z,10.53
2018-10-03T00:59:36.148Z,7.13
2018-10-03T01:02:04.583Z,8.67
2018-10-03T01:04:32.970Z,10.30
2018-10-03T01:07:01.399Z,8.47
2018-10-03T01:09:29.732Z,7.80
2018-10-03T01:11:57.928Z,8.03
2018-10-03T01:14:26.210Z,8.70
2018-10-03T01:16:54.510Z,11.10
2018-10-03T01:19:22.808Z,10.10
2018-10-03T01:21:51.129Z,9.20
2018-10-03T01:24:19.588Z,11.03
2018-10-03T01:26:48.662Z,8.27
2018-10-03T01:29:17.081Z,10.40
2018-10-03T01:31:45.339Z,8.23
2018-10-03T01:34:13.559Z,7.33
2018-10-03T01:36:41.820Z,8.43
2018-10-03T01:39:10.929Z,8.83
2018-10-03T01:41:39.779Z,8.37
2018-10-03T01:44:08.369Z,7.97
2018-10-03T01:46:36.803Z,12.20
2018-10-03T01:49:05.114Z,9.67
2018-10-03T01:51:33.306Z,9.37
2018-10-03T01:54:01.566Z,8.53
2018-10-03T01:56:30.027Z,10.57
2018-10-03T01:58:58.347Z,7.43
2018-10-03T02:01:26.793Z,9.13
2018-10-03T02:03:55.183Z,6.40
2018-10-03T02:06:23.599Z,7.23
2018-10-03T02:08:51.907Z,8.80
2018-10-03T02:11:20.296Z,7.07
2018-10-03T02:13:48.520Z,7.63
2018-10-03T02:16:16.855Z,7.40
2018-10-03T02:18:45.178Z,5.90
2018-10-03T02:21:13.524Z,6.63
2018-10-03T02:23:41.992Z,6.80
2018-10-03T02:26:10.424Z,6.63
2018-10-03T02:28:38.949Z,6.43
2018-10-03T02:31:07.365Z,8.13
2018-10-03T02:33:35.612Z,6.23
2018-10-03T02:36:03.807Z,6.07
2018-10-03T02:38:32.074Z,6.87
2018-10-03T02:41:00.309Z,6.53
2018-10-03T02:43:28.689Z,7.83
2018-10-03T02:45:56.999Z,8.67
2018-10-03T02:48:25.208Z,7.33
2018-10-03T02:50:53.418Z,8.60
2018-10-03T02:53:21.750Z,6.93
2018-10-03T02:55:49.998Z,7.77
2018-10-03T02:58:18.372Z,8.77
2018-10-03T03:00:46.761Z,9.27
2018-10-03T03:03:15.039Z,8.13
2018-10-03T03:05:43.449Z,7.33
2018-10-03T03:08:11.862Z,11.13
2018-10-03T03:10:40.187Z,9.47
2018-10-03T03:13:08.446Z,9.40
2018-10-03T03:15:36.746Z,7.47
2018-10-03T03:18:05.213Z,7.53
2018-10-03T03:20:33.679Z,11.37
2018-10-03T03:23:02.219Z,9.07
2018-10-03T03:25:31.038Z,9.93
2018-10-03T03:27:59.656Z,11.10
2018-10-03T03:30:28.178Z,7.17
2018-10-03T03:32:56.414Z,8.43
2018-10-03T03:35:24.693Z,8.83
2018-10-03T03:37:53.206Z,4.50
2018-10-03T03:40:22.613Z,8.60
2018-10-03T03:42:51.184Z,7.97
2018-10-03T03:45:19.590Z,6.47
2018-10-03T03:47:47.868Z,8.00
2018-10-03T03:50:16.302Z,9.30
2018-10-03T03:52:44.679Z,8.80
2018-10-03T03:55:12.969Z,6.83
2018-10-03T03:57:41.219Z,9.33
2018-10-03T04:00:09.618Z,12.83
2018-10-03T04:02:38.259Z,11.80
2018-10-03T04:05:06.585Z,13.90
2018-10-03T04:07:34.909Z,16.73
2018-10-03T04:10:03.233Z,10.87
2018-10-03T04:12:31.512Z,17.27
2018-10-03T04:15:00.032Z,10.70
2018-10-03T04:17:28.302Z,10.53
2018-10-03T04:19:56.673Z,12.50
2018-10-03T04:22:25.187Z,11.27
2018-10-03T04:24:53.570Z,8.60
2018-10-03T04:27:23.642Z,11.43
2018-10-03T04:29:51.958Z,14.33
2018-10-03T04:32:21.309Z,13.23
2018-10-03T04:34:49.597Z,11.27
2018-10-03T04:37:18.338Z,12.00
2018-10-03T04:39:46.727Z,15.63
2018-10-03T04:42:15.033Z,11.70
2018-10-03T04:44:43.426Z,11.33
2018-10-03T04:47:11.770Z,12.60
2018-10-03T04:49:40.057Z,13.67
2018-10-03T04:52:08.417Z,14.03
2018-10-03T04:54:37.038Z,14.83
2018-10-03T04:57:05.497Z,15.07
2018-10-03T04:59:34.098Z,13.07
2018-10-03T05:02:02.649Z,12.13
2018-10-03T05:04:30.989Z,17.10
2018-10-03T05:06:59.591Z,15.43
2018-10-03T05:09:27.928Z,12.70
2018-10-03T05:11:56.528Z,17.10
2018-10-03T05:14:24.827Z,17.43
2018-10-03T05:16:53.189Z,11.27
2018-10-03T05:19:21.511Z,8.77
2018-10-03T05:21:49.823Z,12.63
2018-10-03T05:24:18.220Z,8.20
2018-10-03T05:26:46.544Z,11.77
2018-10-03T05:29:16.088Z,10.73
2018-10-03T05:31:44.557Z,11.17
2018-10-03T05:34:13.108Z,10.80
2018-10-03T05:36:41.607Z,15.20
2018-10-03T05:39:11.488Z,10.70
2018-10-03T05:41:40.307Z,13.13
2018-10-03T05:44:08.790Z,11.93
2018-10-03T05:46:37.448Z,15.37
2018-10-03T05:49:05.968Z,15.63
2018-10-03T05:51:34.840Z,11.73
2018-10-03T05:54:04.036Z,15.87
2018-10-03T05:56:32.521Z,12.87
2018-10-03T05:59:00.960Z,15.33
2018-10-03T06:01:29.528Z,12.37
2018-10-03T06:03:57.961Z,11.80
2018-10-03T06:06:26.400Z,6.73
2018-10-03T06:08:54.840Z,9.03
2018-10-03T06:11:23.241Z,7.77
2018-10-03T06:13:51.614Z,10.73
2018-10-03T06:16:20.088Z,11.03
2018-10-03T06:18:48.607Z,11.10
2018-10-03T06:21:17.086Z,16.17
2018-10-03T06:23:45.699Z,14.97
2018-10-03T06:26:14.208Z,13.03
2018-10-03T06:28:43.128Z,13.47
2018-10-03T06:31:11.488Z,14.10
2018-10-03T06:33:39.969Z,18.27
2018-10-03T06:36:08.328Z,12.70
2018-10-03T06:38:39.497Z,12.53
2018-10-03T06:41:07.771Z,8.43
2018-10-03T06:43:36.041Z,14.07
2018-10-03T06:46:04.322Z,17.47
2018-10-03T06:48:32.657Z,15.37
2018-10-03T06:51:00.981Z,16.23
2018-10-03T06:53:29.256Z,10.90
2018-10-03T06:55:57.519Z,14.57
2018-10-03T06:58:25.731Z,13.40
2018-10-03T07:00:54.019Z,10.37
2018-10-03T07:03:22.213Z,17.27
2018-10-03T07:05:50.475Z,10.93
2018-10-03T07:08:18.741Z,11.27
2018-10-03T07:10:46.972Z,11.90
2018-10-03T07:13:15.263Z,14.40
2018-10-03T07:15:43.507Z,16.77
2018-10-03T07:18:11.965Z,15.37
2018-10-03T07:20:40.173Z,11.13
2018-10-03T07:23:08.481Z,11.43
2018-10-03T07:25:36.669Z,19.00
2018-10-03T07:28:04.971Z,13.77
2018-10-03T07:30:33.304Z,12.77
2018-10-03T07:33:01.514Z,10.60
2018-10-03T07:35:29.741Z,13.33
2018-10-03T07:37:58.851Z,11.77
2018-10-03T07:40:27.040Z,14.17
2018-10-03T07:42:55.266Z,14.13
2018-10-03T07:45:23.567Z,17.80
2018-10-03T07:47:51.846Z,13.07
2018-10-03T07:50:20.026Z,20.47
2018-10-03T07:52:48.267Z,16.80
2018-10-03T07:55:16.550Z,12.77
2018-10-03T07:57:44.738Z,16.63
2018-10-03T08:00:13.098Z,11.87
2018-10-03T08:02:41.269Z,12.57
2018-10-03T08:05:09.519Z,14.03
2018-10-03T08:07:37.908Z,13.33
2018-10-03T08:10:06.221Z,16.17
2018-10-03T08:12:34.392Z,12.77
2018-10-03T08:15:02.682Z,10.03
2018-10-03T08:17:30.931Z,14.30
2018-10-03T08:19:59.292Z,9.67
2018-10-03T08:22:27.664Z,11.37
2018-10-03T08:24:55.923Z,10.30
2018-10-03T08:27:24.152Z,11.53
2018-10-03T08:29:52.444Z,12.17
2018-10-03T08:32:20.750Z,14.83
2018-10-03T08:34:48.937Z,10.03
2018-10-03T08:37:17.147Z,9.93
2018-10-03T08:39:45.408Z,12.93
2018-10-03T08:42:13.646Z,12.17
2018-10-03T08:44:41.932Z,7.87
2018-10-03T08:47:10.192Z,10.67
2018-10-03T08:49:38.446Z,10.77
2018-10-03T08:52:06.943Z,13.50
2018-10-03T08:54:35.161Z,7.23
2018-10-03T08:57:03.413Z,13.00
2018-10-03T08:59:31.712Z,15.13
2018-10-03T09:01:59.937Z,10.97
2018-10-03T09:04:28.191Z,15.93
2018-10-03T09:06:56.562Z,16.93
2018-10-03T09:09:24.845Z,9.83
2018-10-03T09:11:53.113Z,10.17
2018-10-03T09:14:21.562Z,10.23
2018-10-03T09:16:49.804Z,13.20
2018-10-03T09:19:17.972Z,8.00
2018-10-03T09:21:46.254Z,7.83
2018-10-03T09:24:14.473Z,12.37
2018-10-03T09:26:42.756Z,15.23
2018-10-03T09:29:11.007Z,9.73
2018-10-03T09:31:39.444Z,10.43
2018-10-03T09:34:07.632Z,10.17
2018-10-03T09:36:35.966Z,19.43
2018-10-03T09:39:05.553Z,9.43
2018-10-03T09:41:33.799Z,14.33
2018-10-03T09:44:02.032Z,12.43
2018-10-03T09:46:30.456Z,12.67
2018-10-03T09:48:58.656Z,7.83
2018-10-03T09:51:27.128Z,9.93
2018-10-03T09:53:55.361Z,13.27
2018-10-03T09:56:23.875Z,10.77
2018-10-03T09:58:52.156Z,10.63
2018-10-03T10:01:24.732Z,8.03
2018-10-03T10:03:53.220Z,11.20
2018-10-03T10:06:21.580Z,7.70
2018-10-03T10:08:49.981Z,10.30
2018-10-03T10:11:18.829Z,15.10
2018-10-03T10:13:47.221Z,12.33
2018-10-03T10:16:15.661Z,7.30
2018-10-03T10:18:44.221Z,12.73
2018-10-03T10:21:13.100Z,11.37
2018-10-03T10:23:41.620Z,9.67
2018-10-03T10:26:10.494Z,9.00
2018-10-03T10:28:38.900Z,11.87
2018-10-03T10:31:07.429Z,8.43
2018-10-03T10:33:35.972Z,10.70
2018-10-03T10:36:04.541Z,6.30
2018-10-03T10:38:33.021Z,10.90
2018-10-03T10:41:01.449Z,10.30
2018-10-03T10:43:30.140Z,10.00
2018-10-03T10:45:58.540Z,9.70
2018-10-03T10:48:27.220Z,6.60
2018-10-03T10:50:55.820Z,9.67
2018-10-03T10:53:24.381Z,9.17
2018-10-03T10:55:53.020Z,6.97
2018-10-03T10:58:21.412Z,8.20
2018-10-03T11:00:49.820Z,7.23
2018-10-03T11:03:19.420Z,11.50
2018-10-03T11:05:47.740Z,12.33
2018-10-03T11:08:17.188Z,14.47
2018-10-03T11:10:45.780Z,13.40
2018-10-03T11:13:14.300Z,14.27
2018-10-03T11:15:42.907Z,8.23
2018-10-03T11:18:11.301Z,10.97
2018-10-03T11:20:39.770Z,13.40
2018-10-03T11:23:08.180Z,8.50
2018-10-03T11:25:36.694Z,8.53
2018-10-03T11:28:05.546Z,10.17
2018-10-03T11:30:33.984Z,8.27
2018-10-03T11:33:02.581Z,10.80
2018-10-03T11:35:30.940Z,9.30
2018-10-03T11:37:59.489Z,10.23
2018-10-03T11:40:28.581Z,9.00
2018-10-03T11:42:56.969Z,9.20
2018-10-03T11:45:25.508Z,7.27
2018-10-03T11:47:53.925Z,8.97
2018-10-03T11:50:22.580Z,7.70
2018-10-03T11:52:51.021Z,7.33
2018-10-03T11:55:20.749Z,9.00
2018-10-03T11:57:49.353Z,8.07
2018-10-03T12:00:17.860Z,17.83
2018-10-03T12:02:46.311Z,10.67
2018-10-03T12:05:17.980Z,6.50
2018-10-03T12:07:46.300Z,7.80
2018-10-03T12:10:14.852Z,6.37
2018-10-03T12:12:43.421Z,13.07
2018-10-03T12:15:12.101Z,8.03
2018-10-03T12:17:41.980Z,6.63
2018-10-03T12:20:10.660Z,4.33
2018-10-03T12:22:39.010Z,6.53
2018-10-03T12:25:07.449Z,12.20
2018-10-03T12:27:35.860Z,6.20
2018-10-03T12:30:04.260Z,5.50
2018-10-03T12:32:32.821Z,8.50
2018-10-03T12:35:01.260Z,8.90
2018-10-03T12:37:29.621Z,6.33
2018-10-03T12:39:58.220Z,6.80
2018-10-03T12:42:26.660Z,7.83
2018-10-03T12:44:55.037Z,6.40
2018-10-03T12:47:23.820Z,7.53
2018-10-03T12:49:52.569Z,9.20
2018-10-03T12:52:20.972Z,6.77
2018-10-03T12:54:49.505Z,10.10
2018-10-03T12:57:17.929Z,9.43
2018-10-03T12:59:46.500Z,11.77
2018-10-03T13:02:21.616Z,8.10
2018-10-03T13:04:50.092Z,3.47
2018-10-03T13:07:18.616Z,5.70
2018-10-03T13:09:47.141Z,4.63
2018-10-03T13:12:15.581Z,2.67
2018-10-03T13:14:43.940Z,1.60
2018-10-03T13:17:12.385Z,1.10
2018-10-03T13:19:48.340Z,2.90
2018-10-03T13:22:21.190Z,3.93
2018-10-03T13:24:50.092Z,5.20
2018-10-03T13:27:18.650Z,4.17
2018-10-03T13:29:48.030Z,4.93
2018-10-03T13:32:16.850Z,4.00
2018-10-03T13:34:45.289Z,3.20
2018-10-03T13:37:13.864Z,4.00
2018-10-03T13:39:42.260Z,4.33
2018-10-03T13:42:10.861Z,4.50
2018-10-03T13:44:39.462Z,2.60
2018-10-03T13:47:08.173Z,5.00
2018-10-03T13:49:36.588Z,4.30
2018-10-03T13:52:05.142Z,7.00
2018-10-03T13:54:33.861Z,6.03
2018-10-03T13:57:02.491Z,6.90
2018-10-03T13:59:31.061Z,5.47
2018-10-03T14:01:59.628Z,7.30
2018-10-03T14:04:27.872Z,6.63
2018-10-03T14:06:56.097Z,7.13
2018-10-03T14:09:24.418Z,5.80
2018-10-03T14:11:52.671Z,4.47
2018-10-03T14:14:20.981Z,8.93
2018-10-03T14:16:49.255Z,6.57
2018-10-03T14:19:18.479Z,4.73
2018-10-03T14:21:46.737Z,5.70
2018-10-03T14:24:15.322Z,5.33
2018-10-03T14:26:43.597Z,7.63
2018-10-03T14:29:11.853Z,15.30
2018-10-03T14:31:40.163Z,8.60
2018-10-03T14:34:08.540Z,10.20
2018-10-03T14:36:36.799Z,6.43
2018-10-03T14:39:06.005Z,7.73
2018-10-03T14:41:34.483Z,5.90
2018-10-03T14:44:02.780Z,9.53
2018-10-03T14:46:31.159Z,6.37
2018-10-03T14:48:59.531Z,7.93
2018-10-03T14:51:27.770Z,12.57
2018-10-03T14:53:56.048Z,8.87
2018-10-03T14:56:24.346Z,5.40
2018-10-03T14:58:52.882Z,6.97
2018-10-03T15:01:21.101Z,5.70
2018-10-03T15:03:49.890Z,7.10
2018-10-03T15:06:18.144Z,8.77
2018-10-03T15:08:46.835Z,5.23
2018-10-03T15:11:15.243Z,6.67
2018-10-03T15:13:43.802Z,5.73
2018-10-03T15:16:12.147Z,5.93
2018-10-03T15:18:40.525Z,6.87
2018-10-03T15:21:08.710Z,6.20
2018-10-03T15:23:37.683Z,8.20
2018-10-03T15:26:06.623Z,6.77
2018-10-03T15:28:35.024Z,9.13
2018-10-03T15:31:03.734Z,9.63
2018-10-03T15:33:32.579Z,6.50
2018-10-03T15:36:01.632Z,7.90
2018-10-03T15:38:30.412Z,8.80
2018-10-03T15:40:58.925Z,7.40
2018-10-03T15:43:27.305Z,6.33
2018-10-03T15:45:55.605Z,7.87
2018-10-03T15:48:23.967Z,5.97
2018-10-03T15:50:52.341Z,7.07
2018-10-03T15:53:20.572Z,7.57
2018-10-03T15:55:48.932Z,7.27
2018-10-03T15:58:17.140Z,5.27
2018-10-03T16:00:45.399Z,7.93
2018-10-03T16:03:13.680Z,5.93
2018-10-03T16:05:41.983Z,7.50
2018-10-03T16:08:10.328Z,7.00
2018-10-03T16:10:38.611Z,8.23
2018-10-03T16:13:07.145Z,7.63
2018-10-03T16:15:35.498Z,9.40
2018-10-03T16:18:04.029Z,8.20
2018-10-03T16:20:32.258Z,11.27
2018-10-03T16:23:00.863Z,8.90
2018-10-03T16:25:29.502Z,7.30
2018-10-03T16:27:57.998Z,7.97
2018-10-03T16:30:26.268Z,6.37
2018-10-03T16:32:54.549Z,8.67
2018-10-03T16:35:22.795Z,10.57
2018-10-03T16:37:51.295Z,12.93
2018-10-03T16:40:19.563Z,17.87
2018-10-03T16:42:47.811Z,14.63
2018-10-03T16:45:16.159Z,10.30
2018-10-03T16:47:46.008Z,7.27
2018-10-03T16:50:14.493Z,6.53
2018-10-03T16:52:42.798Z,8.83
2018-10-03T16:55:11.121Z,10.27
2018-10-03T16:57:39.503Z,7.70
2018-10-03T17:00:08.014Z,10.43
2018-10-03T17:02:36.478Z,11.33
2018-10-03T17:05:04.744Z,8.93
2018-10-03T17:07:32.975Z,14.70
2018-10-03T17:10:02.162Z,10.97
2018-10-03T17:12:30.539Z,10.90
2018-10-03T17:14:58.893Z,9.67
2018-10-03T17:17:27.142Z,8.67
2018-10-03T17:19:55.426Z,14.30
2018-10-03T17:22:23.838Z,8.77
2018-10-03T17:24:52.230Z,7.57
2018-10-03T17:27:20.571Z,6.60
2018-10-03T17:29:48.849Z,10.27
2018-10-03T17:32:18.522Z,9.73
2018-10-03T17:34:47.478Z,7.47
2018-10-03T17:37:16.678Z,7.03
2018-10-03T17:39:44.934Z,10.63
2018-10-03T17:42:13.874Z,13.07
2018-10-03T17:44:42.306Z,12.00
2018-10-03T17:47:13.828Z,17.40
2018-10-03T17:49:46.217Z,15.30
2018-10-03T17:52:14.583Z,15.93
2018-10-03T17:54:42.922Z,18.83
2018-10-03T17:57:12.004Z,24.83
2018-10-03T17:59:41.402Z,21.47
2018-10-03T18:02:12.444Z,24.77
2018-10-03T18:04:40.853Z,17.73
2018-10-03T18:07:09.452Z,13.67
2018-10-03T18:09:37.809Z,14.13
2018-10-03T18:12:06.204Z,13.77
2018-10-03T18:14:37.466Z,16.93
2018-10-03T18:17:05.962Z,11.53
2018-10-03T18:19:34.287Z,13.97
2018-10-03T18:22:02.706Z,8.93
2018-10-03T18:24:31.014Z,9.03
2018-10-03T18:27:00.579Z,10.67
2018-10-03T18:29:29.958Z,14.73
2018-10-03T18:31:58.394Z,8.93
2018-10-03T18:34:27.298Z,9.67
2018-10-03T18:36:57.464Z,11.07
2018-10-03T18:39:27.780Z,14.00
2018-10-03T18:41:56.008Z,12.87
2018-10-03T18:44:25.217Z,12.33
2018-10-03T18:46:53.792Z,15.07
2018-10-03T18:49:22.073Z,17.20
2018-10-03T18:51:50.494Z,11.77
2018-10-03T18:54:18.974Z,12.77
2018-10-03T18:56:47.234Z,10.93
2018-10-03T18:59:15.696Z,9.83
2018-10-03T19:01:44.149Z,12.30
2018-10-03T19:04:13.781Z,11.10
2018-10-03T19:06:42.242Z,14.00
2018-10-03T19:09:14.045Z,11.77
2018-10-03T19:11:43.637Z,14.37
2018-10-03T19:14:16.775Z,12.93
2018-10-03T19:16:45.166Z,13.77
2018-10-03T19:19:17.700Z,12.63
2018-10-03T19:21:47.483Z,10.30
2018-10-03T19:24:15.803Z,9.03
2018-10-03T19:26:45.312Z,8.77
2018-10-03T19:29:13.697Z,8.63
2018-10-03T19:31:42.073Z,9.27
2018-10-03T19:34:10.352Z,9.50
2018-10-03T19:36:38.813Z,9.77
2018-10-03T19:39:11.112Z,9.40
2018-10-03T19:41:39.537Z,8.40
2018-10-03T19:44:07.832Z,8.50
2018-10-03T19:46:36.129Z,8.47
2018-10-03T19:49:04.593Z,12.07
2018-10-03T19:51:33.177Z,7.73
2018-10-03T19:54:01.483Z,9.97
2018-10-03T19:56:29.943Z,9.70
2018-10-03T19:58:58.192Z,10.30
2018-10-03T20:01:26.476Z,9.43
2018-10-03T20:03:54.825Z,11.10
2018-10-03T20:06:23.147Z,14.87
2018-10-03T20:08:51.438Z,15.73
2018-10-03T20:11:19.736Z,14.67
2018-10-03T20:13:48.116Z,12.33
2018-10-03T20:16:16.334Z,13.97
2018-10-03T20:18:44.705Z,9.73
2018-10-03T20:21:13.206Z,9.17
2018-10-03T20:23:41.455Z,12.03
2018-10-03T20:26:09.728Z,14.77
2018-10-03T20:28:38.086Z,15.20
2018-10-03T20:31:06.311Z,10.37
2018-10-03T20:33:34.678Z,12.03
2018-10-03T20:36:03.135Z,10.47
2018-10-03T20:38:31.383Z,9.60
2018-10-03T20:40:59.710Z,8.67
2018-10-03T20:43:28.520Z,10.07
2018-10-03T20:45:56.729Z,7.77
2018-10-03T20:48:25.118Z,10.50
2018-10-03T20:50:53.508Z,7.77
2018-10-03T20:53:21.794Z,10.07
2018-10-03T20:55:50.034Z,11.07
2018-10-03T20:58:18.428Z,8.60
2018-10-03T21:00:46.781Z,12.93
2018-10-03T21:03:15.275Z,11.40
2018-10-03T21:09:29.763Z,13.27
2018-10-03T21:11:58.026Z,13.20
2018-10-03T21:14:26.327Z,14.63
2018-10-03T21:16:54.672Z,11.83
2018-10-03T21:19:23.027Z,10.93
2018-10-03T21:21:51.340Z,13.70
2018-10-03T21:24:19.605Z,13.90
2018-10-03T21:26:47.930Z,12.53
2018-10-03T21:29:16.199Z,11.93
2018-10-03T21:31:44.541Z,11.93
2018-10-03T21:34:12.829Z,12.27
2018-10-03T21:36:41.122Z,11.77
2018-10-03T21:39:09.600Z,13.80
2018-10-03T21:41:37.877Z,15.33
2018-10-03T21:44:06.141Z,10.90
2018-10-03T21:46:34.393Z,12.87
2018-10-03T21:49:02.737Z,11.33
2018-10-03T21:51:30.950Z,16.83
2018-10-03T21:53:59.340Z,16.30
2018-10-03T21:56:27.712Z,11.60
2018-10-03T21:58:56.040Z,11.37
2018-10-03T22:01:24.267Z,11.40
2018-10-03T22:03:52.590Z,11.97
2018-10-03T22:06:20.805Z,11.97
2018-10-03T22:08:49.085Z,14.73
2018-10-03T22:11:17.336Z,11.03
2018-10-03T22:13:45.640Z,14.67
2018-10-03T22:16:13.910Z,13.23
2018-10-03T22:18:42.240Z,14.20
2018-10-03T22:21:10.518Z,12.53
2018-10-03T22:23:38.755Z,10.90
2018-10-03T22:26:07.065Z,12.67
2018-10-03T22:28:35.320Z,13.03
2018-10-03T22:31:03.733Z,12.77
2018-10-03T22:33:32.058Z,15.87
2018-10-03T22:36:00.421Z,15.87
2018-10-03T22:38:28.648Z,19.90
2018-10-03T22:40:56.984Z,17.83
2018-10-03T22:43:25.276Z,11.70
2018-10-03T22:45:53.503Z,13.57
2018-10-03T22:48:21.813Z,12.43
2018-10-03T22:50:50.004Z,12.27
2018-10-03T22:53:18.273Z,12.73
2018-10-03T22:55:46.572Z,14.93
2018-10-03T22:58:14.844Z,10.83
2018-10-03T23:00:43.104Z,10.57
2018-10-03T23:03:11.449Z,13.10
2018-10-03T23:05:39.747Z,10.80
2018-10-03T23:08:08.116Z,12.07
2018-10-03T23:10:36.429Z,10.83
2018-10-03T23:13:04.675Z,11.13
2018-10-03T23:15:32.912Z,11.30
2018-10-03T23:18:01.185Z,15.50
2018-10-03T23:20:29.418Z,11.00
2018-10-03T23:22:57.803Z,13.40
2018-10-03T23:25:26.112Z,12.17
2018-10-03T23:27:54.427Z,12.57
2018-10-03T23:30:23.739Z,10.33
2018-10-03T23:32:52.058Z,11.40
2018-10-03T23:35:20.270Z,12.23
2018-10-03T23:37:48.596Z,12.33
2018-10-03T23:40:16.967Z,11.63
2018-10-03T23:42:45.363Z,11.07
2018-10-03T23:45:13.680Z,9.53
2018-10-03T23:47:42.102Z,10.27
2018-10-03T23:50:10.310Z,11.07
2018-10-03T23:52:38.619Z,12.77
2018-10-03T23:55:06.907Z,12.60
2018-10-03T23:57:35.264Z,11.73
